createdAt,value
2024-03-26T00:00:26.227Z,548.00
2024-03-26T00:01:26.277Z,547.00
2024-03-26T00:02:26.274Z,546.00
2024-03-26T00:03:26.297Z,546.00
2024-03-26T00:04:26.329Z,545.00
2024-03-26T00:05:26.356Z,547.00
2024-03-26T00:06:26.389Z,545.00
2024-03-26T00:07:26.395Z,547.00
2024-03-26T00:08:26.420Z,549.00
2024-03-26T00:09:26.441Z,547.00
2024-03-26T00:10:26.464Z,549.00
2024-03-26T00:11:26.497Z,551.00
2024-03-26T00:12:26.510Z,549.00
2024-03-26T00:13:26.538Z,549.00
2024-03-26T00:14:26.565Z,550.00
2024-03-26T00:15:26.586Z,549.00
2024-03-26T00:16:26.622Z,549.00
2024-03-26T00:17:26.644Z,551.00
2024-03-26T00:18:26.730Z,551.00
2024-03-26T00:19:26.682Z,549.00
2024-03-26T00:20:26.738Z,546.00
2024-03-26T00:21:26.752Z,546.00
2024-03-26T00:22:26.762Z,547.00
2024-03-26T00:23:26.795Z,546.00
2024-03-26T00:24:26.812Z,547.00
2024-03-26T00:25:26.844Z,546.00
2024-03-26T00:26:26.877Z,547.00
2024-03-26T00:27:26.907Z,547.00
2024-03-26T00:28:26.928Z,547.00
2024-03-26T00:29:26.965Z,545.00
2024-03-26T00:30:26.997Z,543.00
2024-03-26T00:31:27.022Z,542.00
2024-03-26T00:32:27.068Z,542.00
2024-03-26T00:33:27.089Z,541.00
2024-03-26T00:34:27.145Z,541.00
2024-03-26T00:35:27.196Z,540.00
2024-03-26T00:36:27.177Z,541.00
2024-03-26T00:37:27.200Z,545.00
2024-03-26T00:38:27.239Z,545.00
2024-03-26T00:39:27.266Z,546.00
2024-03-26T00:40:27.293Z,549.00
2024-03-26T00:41:27.318Z,550.00
2024-03-26T00:42:27.347Z,550.00
2024-03-26T00:43:27.385Z,549.00
2024-03-26T00:44:27.399Z,546.00
2024-03-26T00:45:27.435Z,547.00
2024-03-26T00:46:27.466Z,548.00
2024-03-26T00:47:27.491Z,550.00
2024-03-26T00:48:27.502Z,551.00
2024-03-26T00:49:27.533Z,552.00
2024-03-26T00:50:27.569Z,553.00
2024-03-26T00:51:27.600Z,552.00
2024-03-26T00:52:27.625Z,555.00
2024-03-26T00:53:27.648Z,555.00
2024-03-26T00:54:27.761Z,553.00
2024-03-26T00:55:27.698Z,553.00
2024-03-26T00:56:27.725Z,553.00
2024-03-26T00:57:27.773Z,549.00
2024-03-26T00:58:27.785Z,548.00
2024-03-26T00:59:27.815Z,547.00
2024-03-26T01:00:27.872Z,547.00
2024-03-26T01:01:27.876Z,549.00
2024-03-26T01:02:27.910Z,547.00
2024-03-26T01:03:27.965Z,548.00
2024-03-26T01:04:27.967Z,548.00
2024-03-26T01:05:28.026Z,549.00
2024-03-26T01:06:28.059Z,547.00
2024-03-26T01:07:28.061Z,546.00
2024-03-26T01:08:28.095Z,547.00
2024-03-26T01:09:28.132Z,544.00
2024-03-26T01:10:28.177Z,543.00
2024-03-26T01:11:28.190Z,545.00
2024-03-26T01:12:28.219Z,544.00
2024-03-26T01:13:28.250Z,546.00
2024-03-26T01:14:28.283Z,547.00
2024-03-26T01:15:28.315Z,544.00
2024-03-26T01:16:28.375Z,542.00
2024-03-26T01:17:28.422Z,542.00
2024-03-26T01:18:28.416Z,544.00
2024-03-26T01:19:28.446Z,545.00
2024-03-26T01:20:28.483Z,544.00
2024-03-26T01:21:28.509Z,546.00
2024-03-26T01:22:28.543Z,548.00
2024-03-26T01:23:28.576Z,548.00
2024-03-26T01:24:28.608Z,549.00
2024-03-26T01:25:28.630Z,551.00
2024-03-26T01:26:28.667Z,552.00
2024-03-26T01:27:28.699Z,552.00
2024-03-26T01:28:28.727Z,551.00
2024-03-26T01:29:28.752Z,551.00
2024-03-26T01:30:28.787Z,551.00
2024-03-26T01:31:28.823Z,551.00
2024-03-26T01:32:28.865Z,551.00
2024-03-26T01:33:28.875Z,552.00
2024-03-26T01:34:28.903Z,549.00
2024-03-26T01:35:28.939Z,548.00
2024-03-26T01:36:28.995Z,550.00
2024-03-26T01:37:29.030Z,550.00
2024-03-26T01:38:29.047Z,551.00
2024-03-26T01:39:29.830Z,552.00
2024-03-26T01:40:29.091Z,553.00
2024-03-26T01:41:29.121Z,551.00
2024-03-26T01:42:29.152Z,549.00
2024-03-26T01:43:29.204Z,546.00
2024-03-26T01:44:29.218Z,547.00
2024-03-26T01:45:29.263Z,546.00
2024-03-26T01:46:29.294Z,546.00
2024-03-26T01:47:29.337Z,544.00
2024-03-26T01:48:29.338Z,545.00
2024-03-26T01:49:29.388Z,546.00
2024-03-26T01:50:29.406Z,545.00
2024-03-26T01:51:29.458Z,549.00
2024-03-26T01:52:29.506Z,552.00
2024-03-26T01:53:29.547Z,553.00
2024-03-26T01:54:29.558Z,552.00
2024-03-26T01:55:29.597Z,547.00
2024-03-26T01:56:29.611Z,547.00
2024-03-26T01:57:29.652Z,546.00
2024-03-26T01:58:29.673Z,547.00
2024-03-26T01:59:29.704Z,549.00
2024-03-26T02:00:29.751Z,552.00
2024-03-26T02:01:29.773Z,553.00
2024-03-26T02:02:29.841Z,555.00
2024-03-26T02:03:29.837Z,552.00
2024-03-26T02:04:29.869Z,552.00
2024-03-26T02:05:29.910Z,552.00
2024-03-26T02:06:29.934Z,551.00
2024-03-26T02:07:29.966Z,552.00
2024-03-26T02:08:29.992Z,556.00
2024-03-26T02:09:30.022Z,557.00
2024-03-26T02:10:30.054Z,558.00
2024-03-26T02:11:30.096Z,559.00
2024-03-26T02:12:30.126Z,559.00
2024-03-26T02:13:30.156Z,556.00
2024-03-26T02:14:30.194Z,557.00
2024-03-26T02:15:30.232Z,557.00
2024-03-26T02:16:30.263Z,559.00
2024-03-26T02:17:30.307Z,560.00
2024-03-26T02:18:30.322Z,562.00
2024-03-26T02:19:30.352Z,560.00
2024-03-26T02:20:30.388Z,561.00
2024-03-26T02:21:30.423Z,560.00
2024-03-26T02:22:30.448Z,558.00
2024-03-26T02:23:30.485Z,559.00
2024-03-26T02:24:30.518Z,559.00
2024-03-26T02:25:30.545Z,559.00
2024-03-26T02:26:30.573Z,556.00
2024-03-26T02:27:30.602Z,558.00
2024-03-26T02:28:30.644Z,559.00
2024-03-26T02:29:30.669Z,558.00
2024-03-26T02:30:30.713Z,558.00
2024-03-26T02:31:30.756Z,558.00
2024-03-26T02:32:30.782Z,555.00
2024-03-26T02:33:30.806Z,551.00
2024-03-26T02:34:30.848Z,549.00
2024-03-26T02:35:30.882Z,550.00
2024-03-26T02:36:30.916Z,550.00
2024-03-26T02:37:30.960Z,551.00
2024-03-26T02:38:31.008Z,550.00
2024-03-26T02:39:31.030Z,552.00
2024-03-26T02:40:31.115Z,551.00
2024-03-26T02:41:31.178Z,553.00
2024-03-26T02:42:31.192Z,552.00
2024-03-26T02:43:31.234Z,552.00
2024-03-26T02:44:31.258Z,553.00
2024-03-26T02:45:31.308Z,553.00
2024-03-26T02:46:31.280Z,553.00
2024-03-26T02:47:31.293Z,552.00
2024-03-26T02:48:31.324Z,552.00
2024-03-26T02:49:31.365Z,550.00
2024-03-26T02:50:31.413Z,550.00
2024-03-26T02:51:31.450Z,550.00
2024-03-26T02:52:31.473Z,549.00
2024-03-26T02:53:31.503Z,552.00
2024-03-26T02:54:31.550Z,552.00
2024-03-26T02:55:31.613Z,549.00
2024-03-26T02:56:31.626Z,551.00
2024-03-26T02:57:31.681Z,551.00
2024-03-26T02:58:31.707Z,550.00
2024-03-26T02:59:31.746Z,550.00
2024-03-26T03:00:31.791Z,549.00
2024-03-26T03:01:31.835Z,550.00
2024-03-26T03:02:31.865Z,550.00
2024-03-26T03:03:31.901Z,551.00
2024-03-26T03:04:31.928Z,555.00
2024-03-26T03:05:31.966Z,556.00
2024-03-26T03:06:32.007Z,557.00
2024-03-26T03:07:32.050Z,560.00
2024-03-26T03:08:32.080Z,557.00
2024-03-26T03:09:32.121Z,555.00
2024-03-26T03:10:32.162Z,554.00
2024-03-26T03:11:32.207Z,556.00
2024-03-26T03:12:32.242Z,554.00
2024-03-26T03:13:32.284Z,552.00
2024-03-26T03:14:32.329Z,553.00
2024-03-26T03:15:32.364Z,555.00
2024-03-26T03:16:32.409Z,555.00
2024-03-26T03:17:32.477Z,553.00
2024-03-26T03:18:32.492Z,553.00
2024-03-26T03:19:32.528Z,554.00
2024-03-26T03:20:32.586Z,553.00
2024-03-26T03:21:32.610Z,553.00
2024-03-26T03:22:32.666Z,551.00
2024-03-26T03:23:32.693Z,553.00
2024-03-26T03:24:32.738Z,554.00
2024-03-26T03:25:32.773Z,555.00
2024-03-26T03:26:32.818Z,555.00
2024-03-26T03:27:32.863Z,554.00
2024-03-26T03:28:32.910Z,553.00
2024-03-26T03:29:32.955Z,553.00
2024-03-26T03:30:32.993Z,551.00
2024-03-26T03:31:33.048Z,549.00
2024-03-26T03:32:33.084Z,548.00
2024-03-26T03:33:33.130Z,551.00
2024-03-26T03:34:33.168Z,553.00
2024-03-26T03:35:33.212Z,553.00
2024-03-26T03:36:33.258Z,552.00
2024-03-26T03:37:33.300Z,550.00
2024-03-26T03:38:33.341Z,549.00
2024-03-26T03:39:33.380Z,548.00
2024-03-26T03:40:33.424Z,547.00
2024-03-26T03:41:33.477Z,547.00
2024-03-26T03:42:33.519Z,548.00
2024-03-26T03:43:33.562Z,550.00
2024-03-26T03:44:33.606Z,550.00
2024-03-26T03:45:33.648Z,552.00
2024-03-26T03:46:33.703Z,552.00
2024-03-26T03:47:33.745Z,552.00
2024-03-26T03:48:33.796Z,552.00
2024-03-26T03:49:33.836Z,549.00
2024-03-26T03:50:33.890Z,546.00
2024-03-26T03:51:33.945Z,548.00
2024-03-26T03:52:33.975Z,551.00
2024-03-26T03:53:34.042Z,549.00
2024-03-26T03:54:34.076Z,552.00
2024-03-26T03:55:34.129Z,555.00
2024-03-26T03:56:34.171Z,554.00
2024-03-26T03:57:34.215Z,554.00
2024-03-26T03:58:34.268Z,554.00
2024-03-26T03:59:34.304Z,555.00
2024-03-26T04:00:34.350Z,553.00
2024-03-26T04:01:34.399Z,553.00
2024-03-26T04:02:34.444Z,554.00
2024-03-26T04:03:34.491Z,556.00
2024-03-26T04:04:34.537Z,554.00
2024-03-26T04:05:34.602Z,554.00
2024-03-26T04:06:34.623Z,554.00
2024-03-26T04:07:34.666Z,553.00
2024-03-26T04:08:34.710Z,553.00
2024-03-26T04:09:34.751Z,553.00
2024-03-26T04:10:34.800Z,554.00
2024-03-26T04:11:34.857Z,554.00
2024-03-26T04:12:34.885Z,552.00
2024-03-26T04:13:34.934Z,550.00
2024-03-26T04:14:34.988Z,551.00
2024-03-26T04:15:35.022Z,547.00
2024-03-26T04:16:35.074Z,547.00
2024-03-26T04:17:35.114Z,547.00
2024-03-26T04:18:36.469Z,551.00
2024-03-26T04:19:35.195Z,551.00
2024-03-26T04:20:35.239Z,549.00
2024-03-26T04:21:35.284Z,549.00
2024-03-26T04:22:35.334Z,549.00
2024-03-26T04:23:35.372Z,551.00
2024-03-26T04:24:35.415Z,552.00
2024-03-26T04:25:35.478Z,552.00
2024-03-26T04:26:35.508Z,552.00
2024-03-26T04:27:35.544Z,553.00
2024-03-26T04:28:35.588Z,554.00
2024-03-26T04:29:35.632Z,554.00
2024-03-26T04:30:35.681Z,552.00
2024-03-26T04:31:35.715Z,551.00
2024-03-26T04:32:35.767Z,553.00
2024-03-26T04:33:35.799Z,553.00
2024-03-26T04:34:35.856Z,554.00
2024-03-26T04:35:35.898Z,552.00
2024-03-26T04:36:43.161Z,540.00
2024-03-26T04:37:43.170Z,549.00
2024-03-26T04:38:43.181Z,551.00
2024-03-26T04:39:43.192Z,552.00
2024-03-26T04:40:43.210Z,552.00
2024-03-26T04:41:43.241Z,552.00
2024-03-26T04:42:43.246Z,553.00
2024-03-26T04:43:43.273Z,552.00
2024-03-26T04:44:43.286Z,551.00
2024-03-26T04:45:43.307Z,553.00
2024-03-26T04:46:43.324Z,554.00
2024-03-26T04:47:43.338Z,557.00
2024-03-26T04:48:43.356Z,559.00
2024-03-26T04:49:43.375Z,558.00
2024-03-26T04:50:43.387Z,559.00
2024-03-26T04:51:43.391Z,561.00
2024-03-26T04:52:43.392Z,561.00
2024-03-26T04:53:43.414Z,561.00
2024-03-26T04:54:43.423Z,560.00
2024-03-26T04:55:43.462Z,557.00
2024-03-26T04:56:43.466Z,556.00
2024-03-26T04:57:43.472Z,559.00
2024-03-26T04:58:43.496Z,561.00
2024-03-26T04:59:43.509Z,561.00
2024-03-26T05:00:43.530Z,561.00
2024-03-26T05:01:43.551Z,560.00
2024-03-26T05:02:43.558Z,563.00
2024-03-26T05:03:43.592Z,565.00
2024-03-26T05:04:43.594Z,564.00
2024-03-26T05:05:43.603Z,564.00
2024-03-26T05:06:43.626Z,565.00
2024-03-26T05:07:43.631Z,565.00
2024-03-26T05:08:43.654Z,567.00
2024-03-26T05:09:43.676Z,568.00
2024-03-26T05:10:43.718Z,568.00
2024-03-26T05:11:43.709Z,567.00
2024-03-26T05:12:43.729Z,566.00
2024-03-26T05:13:43.747Z,564.00
2024-03-26T05:14:43.765Z,563.00
2024-03-26T05:15:43.785Z,565.00
2024-03-26T05:16:43.803Z,562.00
2024-03-26T05:17:43.804Z,560.00
2024-03-26T05:18:43.824Z,561.00
2024-03-26T05:19:43.828Z,559.00
2024-03-26T05:20:43.874Z,559.00
2024-03-26T05:21:43.850Z,556.00
2024-03-26T05:22:43.858Z,556.00
2024-03-26T05:23:43.880Z,554.00
2024-03-26T05:24:43.889Z,553.00
2024-03-26T05:25:43.909Z,555.00
2024-03-26T05:26:43.920Z,553.00
2024-03-26T05:27:43.936Z,552.00
2024-03-26T05:28:44.672Z,552.00
2024-03-26T05:29:43.979Z,554.00
2024-03-26T05:30:44.034Z,552.00
2024-03-26T05:31:44.087Z,555.00
2024-03-26T05:32:44.137Z,555.00
2024-03-26T05:33:44.183Z,555.00
2024-03-26T05:34:44.240Z,557.00
2024-03-26T05:35:44.292Z,558.00
2024-03-26T05:36:44.350Z,557.00
2024-03-26T05:37:44.404Z,557.00
2024-03-26T05:38:44.449Z,556.00
2024-03-26T05:39:44.499Z,555.00
2024-03-26T05:40:44.551Z,553.00
2024-03-26T05:41:44.613Z,556.00
2024-03-26T05:42:44.654Z,555.00
2024-03-26T05:43:44.707Z,555.00
2024-03-26T05:44:44.761Z,557.00
2024-03-26T05:45:44.802Z,560.00
2024-03-26T05:46:44.868Z,558.00
2024-03-26T05:47:44.910Z,556.00
2024-03-26T05:48:44.957Z,554.00
2024-03-26T05:49:44.993Z,555.00
2024-03-26T05:50:45.042Z,554.00
2024-03-26T05:51:45.096Z,554.00
2024-03-26T05:52:45.153Z,555.00
2024-03-26T05:53:45.229Z,555.00
2024-03-26T05:54:45.239Z,558.00
2024-03-26T05:55:45.293Z,556.00
2024-03-26T05:56:45.336Z,555.00
2024-03-26T05:57:45.380Z,554.00
2024-03-26T05:58:45.434Z,554.00
2024-03-26T05:59:45.481Z,553.00
2024-03-26T06:00:45.539Z,550.00
2024-03-26T06:01:45.588Z,552.00
2024-03-26T06:02:45.637Z,549.00
2024-03-26T06:03:45.672Z,547.00
2024-03-26T06:04:45.728Z,546.00
2024-03-26T06:05:45.766Z,547.00
2024-03-26T06:06:45.823Z,547.00
2024-03-26T06:07:45.863Z,547.00
2024-03-26T06:08:45.910Z,547.00
2024-03-26T06:09:45.965Z,548.00
2024-03-26T06:10:46.000Z,550.00
2024-03-26T06:11:46.059Z,549.00
2024-03-26T06:12:46.099Z,552.00
2024-03-26T06:13:46.143Z,552.00
2024-03-26T06:14:46.198Z,550.00
2024-03-26T06:15:46.240Z,549.00
2024-03-26T06:16:46.289Z,549.00
2024-03-26T06:17:46.330Z,549.00
2024-03-26T06:18:46.366Z,551.00
2024-03-26T06:19:46.412Z,549.00
2024-03-26T06:20:46.462Z,549.00
2024-03-26T06:21:46.507Z,548.00
2024-03-26T06:22:46.549Z,549.00
2024-03-26T06:23:46.594Z,549.00
2024-03-26T06:24:46.635Z,551.00
2024-03-26T06:25:46.672Z,552.00
2024-03-26T06:26:46.735Z,550.00
2024-03-26T06:27:46.773Z,552.00
2024-03-26T06:28:46.822Z,552.00
2024-03-26T06:29:46.858Z,553.00
2024-03-26T06:30:46.909Z,552.00
2024-03-26T06:31:46.988Z,553.00
2024-03-26T06:32:47.018Z,551.00
2024-03-26T06:33:47.027Z,549.00
2024-03-26T06:34:47.078Z,550.00
2024-03-26T06:35:47.121Z,552.00
2024-03-26T06:36:47.154Z,552.00
2024-03-26T06:37:47.194Z,552.00
2024-03-26T06:38:47.243Z,555.00
2024-03-26T06:39:47.276Z,553.00
2024-03-26T06:40:47.315Z,555.00
2024-03-26T06:41:47.361Z,555.00
2024-03-26T06:42:47.399Z,557.00
2024-03-26T06:43:47.436Z,556.00
2024-03-26T06:44:47.484Z,559.00
2024-03-26T06:45:47.527Z,557.00
2024-03-26T06:46:47.561Z,554.00
2024-03-26T06:47:47.596Z,552.00
2024-03-26T06:48:47.629Z,554.00
2024-03-26T06:49:47.665Z,557.00
2024-03-26T06:50:47.707Z,556.00
2024-03-26T06:51:47.759Z,557.00
2024-03-26T06:52:47.816Z,557.00
2024-03-26T06:53:47.824Z,556.00
2024-03-26T06:54:47.867Z,555.00
2024-03-26T06:55:47.900Z,558.00
2024-03-26T06:56:47.934Z,557.00
2024-03-26T06:57:47.963Z,559.00
2024-03-26T06:58:48.000Z,557.00
2024-03-26T06:59:48.026Z,557.00
2024-03-26T07:00:48.051Z,553.00
2024-03-26T07:01:48.090Z,556.00
2024-03-26T07:02:48.100Z,555.00
2024-03-26T07:03:48.137Z,553.00
2024-03-26T07:04:48.146Z,555.00
2024-03-26T07:05:48.180Z,556.00
2024-03-26T07:06:48.189Z,556.00
2024-03-26T07:07:48.212Z,556.00
2024-03-26T07:08:48.238Z,557.00
2024-03-26T07:09:48.245Z,557.00
2024-03-26T07:10:48.260Z,556.00
2024-03-26T07:11:48.288Z,553.00
2024-03-26T07:12:48.311Z,554.00
2024-03-26T07:13:48.338Z,555.00
2024-03-26T07:14:48.356Z,555.00
2024-03-26T07:15:48.374Z,557.00
2024-03-26T07:16:48.384Z,556.00
2024-03-26T07:17:48.405Z,559.00
2024-03-26T07:18:50.172Z,558.00
2024-03-26T07:19:48.432Z,560.00
2024-03-26T07:20:48.444Z,558.00
2024-03-26T07:21:48.458Z,556.00
2024-03-26T07:22:48.463Z,554.00
2024-03-26T07:23:48.474Z,553.00
2024-03-26T07:24:48.491Z,551.00
2024-03-26T07:25:48.506Z,553.00
2024-03-26T07:26:48.521Z,552.00
2024-03-26T07:27:48.525Z,553.00
2024-03-26T07:28:48.526Z,553.00
2024-03-26T07:29:48.537Z,555.00
2024-03-26T07:30:48.561Z,557.00
2024-03-26T07:31:48.555Z,557.00
2024-03-26T07:32:48.566Z,554.00
2024-03-26T07:33:48.579Z,552.00
2024-03-26T07:34:48.607Z,554.00
2024-03-26T07:35:48.623Z,557.00
2024-03-26T07:36:48.633Z,556.00
2024-03-26T07:37:48.642Z,558.00
2024-03-26T07:38:48.672Z,559.00
2024-03-26T07:39:48.654Z,558.00
2024-03-26T07:40:48.667Z,560.00
2024-03-26T07:41:48.771Z,561.00
2024-03-26T07:42:48.696Z,562.00
2024-03-26T07:43:48.697Z,559.00
2024-03-26T07:44:48.715Z,557.00
2024-03-26T07:45:48.723Z,557.00
2024-03-26T07:46:48.746Z,556.00
2024-03-26T07:47:48.746Z,557.00
2024-03-26T07:48:48.787Z,557.00
2024-03-26T07:49:48.772Z,557.00
2024-03-26T07:50:50.261Z,555.00
2024-03-26T07:51:48.786Z,559.00
2024-03-26T07:52:48.799Z,559.00
2024-03-26T07:53:48.816Z,560.00
2024-03-26T07:54:48.818Z,561.00
2024-03-26T07:55:48.823Z,561.00
2024-03-26T07:56:48.831Z,560.00
2024-03-26T07:57:48.832Z,560.00
2024-03-26T07:58:48.906Z,563.00
2024-03-26T07:59:48.898Z,562.00
2024-03-26T08:00:48.850Z,563.00
2024-03-26T08:01:48.978Z,560.00
2024-03-26T08:02:48.857Z,561.00
2024-03-26T08:03:48.934Z,559.00
2024-03-26T08:04:48.904Z,559.00
2024-03-26T08:05:48.862Z,556.00
2024-03-26T08:06:48.869Z,554.00
2024-03-26T08:07:48.863Z,557.00
2024-03-26T08:08:48.934Z,559.00
2024-03-26T08:09:48.895Z,559.00
2024-03-26T08:10:48.929Z,559.00
2024-03-26T08:11:48.974Z,561.00
2024-03-26T08:12:48.972Z,560.00
2024-03-26T08:13:49.014Z,559.00
2024-03-26T08:14:49.063Z,558.00
2024-03-26T08:15:49.120Z,559.00
2024-03-26T08:16:49.152Z,557.00
2024-03-26T08:17:49.189Z,555.00
2024-03-26T08:18:49.243Z,555.00
2024-03-26T08:19:49.328Z,558.00
2024-03-26T08:20:49.370Z,557.00
2024-03-26T08:21:49.440Z,558.00
2024-03-26T08:22:49.519Z,554.00
2024-03-26T08:23:49.544Z,553.00
2024-03-26T08:24:49.596Z,554.00
2024-03-26T08:25:49.719Z,554.00
2024-03-26T08:26:49.674Z,557.00
2024-03-26T08:27:49.699Z,556.00
2024-03-26T08:28:49.742Z,558.00
2024-03-26T08:29:49.747Z,558.00
2024-03-26T08:30:49.777Z,560.00
2024-03-26T08:31:49.819Z,559.00
2024-03-26T08:32:49.898Z,560.00
2024-03-26T08:33:49.975Z,557.00
2024-03-26T08:34:49.996Z,559.00
2024-03-26T08:35:50.059Z,558.00
2024-03-26T08:36:50.126Z,555.00
2024-03-26T08:37:50.142Z,554.00
2024-03-26T08:38:50.126Z,551.00
2024-03-26T08:39:50.126Z,548.00
2024-03-26T08:40:50.143Z,548.00
2024-03-26T08:41:50.164Z,549.00
2024-03-26T08:42:50.192Z,548.00
2024-03-26T08:43:50.276Z,546.00
2024-03-26T08:44:50.283Z,547.00
2024-03-26T08:45:50.298Z,545.00
2024-03-26T08:46:50.343Z,544.00
2024-03-26T08:47:50.404Z,546.00
2024-03-26T08:48:50.449Z,546.00
2024-03-26T08:49:50.495Z,547.00
2024-03-26T08:50:50.552Z,545.00
2024-03-26T08:51:52.150Z,547.00
2024-03-26T08:52:50.608Z,551.00
2024-03-26T08:53:50.644Z,550.00
2024-03-26T08:54:50.690Z,552.00
2024-03-26T08:55:50.761Z,554.00
2024-03-26T08:56:50.780Z,552.00
2024-03-26T08:57:50.819Z,548.00
2024-03-26T08:58:50.847Z,549.00
2024-03-26T08:59:50.892Z,552.00
2024-03-26T09:00:50.929Z,552.00
2024-03-26T09:01:50.988Z,551.00
2024-03-26T09:02:51.064Z,550.00
2024-03-26T09:03:51.026Z,548.00
2024-03-26T09:04:51.038Z,548.00
2024-03-26T09:05:51.042Z,546.00
2024-03-26T09:06:51.069Z,548.00
2024-03-26T09:07:51.075Z,550.00
2024-03-26T09:08:51.100Z,550.00
2024-03-26T09:09:51.134Z,549.00
2024-03-26T09:10:51.170Z,547.00
2024-03-26T09:11:51.199Z,547.00
2024-03-26T09:12:51.229Z,545.00
2024-03-26T09:13:51.241Z,545.00
2024-03-26T09:14:51.280Z,548.00
2024-03-26T09:15:51.266Z,548.00
2024-03-26T09:16:51.274Z,549.00
2024-03-26T09:17:51.294Z,549.00
2024-03-26T09:18:51.303Z,548.00
2024-03-26T09:19:51.330Z,550.00
2024-03-26T09:20:51.386Z,551.00
2024-03-26T09:21:51.386Z,549.00
2024-03-26T09:22:51.410Z,550.00
2024-03-26T09:23:52.042Z,552.00
2024-03-26T09:24:51.428Z,551.00
2024-03-26T09:25:51.461Z,552.00
2024-03-26T09:26:51.466Z,552.00
2024-03-26T09:27:51.486Z,552.00
2024-03-26T09:28:51.514Z,552.00
2024-03-26T09:29:51.531Z,553.00
2024-03-26T09:30:51.572Z,553.00
2024-03-26T09:31:51.574Z,554.00
2024-03-26T09:32:51.592Z,554.00
2024-03-26T09:33:51.982Z,553.00
2024-03-26T09:34:51.627Z,554.00
2024-03-26T09:35:51.643Z,550.00
2024-03-26T09:36:51.657Z,549.00
2024-03-26T09:37:51.659Z,548.00
2024-03-26T09:38:53.833Z,552.00
2024-03-26T09:39:52.690Z,554.00
2024-03-26T09:40:51.719Z,555.00
2024-03-26T09:41:51.702Z,555.00
2024-03-26T09:42:51.703Z,551.00
2024-03-26T09:43:51.709Z,551.00
2024-03-26T09:44:58.533Z,551.00
2024-03-26T09:45:52.731Z,548.00
2024-03-26T09:46:51.751Z,547.00
2024-03-26T09:47:51.752Z,547.00
2024-03-26T09:48:51.770Z,549.00
2024-03-26T09:49:51.759Z,549.00
2024-03-26T09:50:51.763Z,549.00
2024-03-26T09:51:51.758Z,549.00
2024-03-26T09:52:51.770Z,551.00
2024-03-26T09:53:51.777Z,550.00
2024-03-26T09:54:51.782Z,551.00
2024-03-26T09:55:51.807Z,553.00
2024-03-26T09:56:51.805Z,554.00
2024-03-26T09:57:51.815Z,552.00
2024-03-26T09:58:51.823Z,551.00
2024-03-26T09:59:51.834Z,551.00
2024-03-26T10:00:51.843Z,551.00
2024-03-26T10:01:51.849Z,549.00
2024-03-26T10:02:51.865Z,548.00
2024-03-26T10:03:51.896Z,548.00
2024-03-26T10:04:51.889Z,549.00
2024-03-26T10:05:51.885Z,552.00
2024-03-26T10:06:51.906Z,549.00
2024-03-26T10:07:51.899Z,552.00
2024-03-26T10:08:51.923Z,550.00
2024-03-26T10:09:51.919Z,552.00
2024-03-26T10:10:51.923Z,554.00
2024-03-26T10:11:51.929Z,553.00
2024-03-26T10:12:51.934Z,553.00
2024-03-26T10:13:51.936Z,553.00
2024-03-26T10:14:51.918Z,554.00
2024-03-26T10:15:51.928Z,555.00
2024-03-26T10:16:51.922Z,554.00
2024-03-26T10:17:51.925Z,553.00
2024-03-26T10:18:51.944Z,552.00
2024-03-26T10:19:52.002Z,554.00
2024-03-26T10:20:51.927Z,554.00
2024-03-26T10:21:51.931Z,553.00
2024-03-26T10:22:52.878Z,555.00
2024-03-26T10:23:51.926Z,553.00
2024-03-26T10:24:51.929Z,553.00
2024-03-26T10:25:51.984Z,554.00
2024-03-26T10:26:51.938Z,553.00
2024-03-26T10:27:51.938Z,556.00
2024-03-26T10:28:51.935Z,555.00
2024-03-26T10:29:51.966Z,555.00
2024-03-26T10:30:52.002Z,551.00
2024-03-26T10:31:52.061Z,552.00
2024-03-26T10:32:52.124Z,549.00
2024-03-26T10:33:52.160Z,549.00
2024-03-26T10:34:52.157Z,552.00
2024-03-26T10:35:52.163Z,555.00
2024-03-26T10:36:52.166Z,555.00
2024-03-26T10:37:54.831Z,553.00
2024-03-26T10:39:00.317Z,551.00
2024-03-26T10:39:53.154Z,549.00
2024-03-26T10:40:54.326Z,550.00
2024-03-26T10:41:52.172Z,552.00
2024-03-26T10:42:52.164Z,552.00
2024-03-26T10:43:52.165Z,551.00
2024-03-26T10:44:52.161Z,548.00
2024-03-26T10:46:52.205Z,546.00
2024-03-26T10:47:52.198Z,549.00
2024-03-26T10:48:57.578Z,549.00
2024-03-26T10:49:53.203Z,550.00
2024-03-26T10:50:52.191Z,549.00
2024-03-26T10:51:52.207Z,549.00
2024-03-26T10:52:52.229Z,550.00
2024-03-26T10:53:52.222Z,552.00
2024-03-26T10:54:52.225Z,555.00
2024-03-26T10:55:52.237Z,555.00
2024-03-26T10:56:52.226Z,554.00
2024-03-26T10:57:52.246Z,555.00
2024-03-26T10:58:52.307Z,556.00
2024-03-26T10:59:52.373Z,558.00
2024-03-26T11:00:52.449Z,558.00
2024-03-26T11:01:52.507Z,559.00
2024-03-26T11:02:52.571Z,557.00
2024-03-26T11:03:52.644Z,558.00
2024-03-26T11:04:52.688Z,557.00
2024-03-26T11:05:52.734Z,556.00
2024-03-26T11:06:52.805Z,555.00
2024-03-26T11:07:52.880Z,555.00
2024-03-26T11:08:52.940Z,553.00
2024-03-26T11:09:53.093Z,553.00
2024-03-26T11:10:54.169Z,549.00
2024-03-26T11:11:53.126Z,549.00
2024-03-26T11:12:53.177Z,553.00
2024-03-26T11:13:53.222Z,550.00
2024-03-26T11:14:53.263Z,552.00
2024-03-26T11:15:53.339Z,551.00
2024-03-26T11:16:53.394Z,551.00
2024-03-26T11:17:53.466Z,549.00
2024-03-26T11:18:53.504Z,547.00
2024-03-26T11:19:53.568Z,548.00
2024-03-26T11:20:53.649Z,550.00
2024-03-26T11:21:53.748Z,551.00
2024-03-26T11:22:53.745Z,551.00
2024-03-26T11:23:53.798Z,553.00
2024-03-26T11:24:53.842Z,554.00
2024-03-26T11:25:53.916Z,555.00
2024-03-26T11:26:53.959Z,555.00
2024-03-26T11:27:54.419Z,554.00
2024-03-26T11:28:54.055Z,552.00
2024-03-26T11:29:54.118Z,549.00
2024-03-26T11:30:54.181Z,549.00
2024-03-26T11:31:54.222Z,548.00
2024-03-26T11:32:54.294Z,548.00
2024-03-26T11:33:54.344Z,547.00
2024-03-26T11:34:54.410Z,549.00
2024-03-26T11:35:54.470Z,550.00
2024-03-26T11:36:54.519Z,551.00
2024-03-26T11:37:55.413Z,550.00
2024-03-26T11:38:54.632Z,550.00
2024-03-26T11:39:54.676Z,549.00
2024-03-26T11:40:54.737Z,547.00
2024-03-26T11:41:54.784Z,549.00
2024-03-26T11:42:54.840Z,549.00
2024-03-26T11:43:54.909Z,549.00
2024-03-26T11:44:54.980Z,548.00
2024-03-26T11:45:55.050Z,549.00
2024-03-26T11:46:55.105Z,549.00
2024-03-26T11:47:55.172Z,548.00
2024-03-26T11:48:55.234Z,550.00
2024-03-26T11:49:55.295Z,550.00
2024-03-26T11:50:55.363Z,551.00
2024-03-26T11:51:55.430Z,553.00
2024-03-26T11:52:55.520Z,553.00
2024-03-26T11:53:55.558Z,550.00
2024-03-26T11:54:55.596Z,551.00
2024-03-26T11:55:55.649Z,550.00
2024-03-26T11:56:55.701Z,548.00
2024-03-26T11:57:55.778Z,548.00
2024-03-26T11:58:55.794Z,547.00
2024-03-26T11:59:55.846Z,547.00
2024-03-26T12:00:55.900Z,549.00
2024-03-26T12:01:55.952Z,547.00
2024-03-26T12:02:56.015Z,547.00
2024-03-26T12:03:56.078Z,545.00
2024-03-26T12:04:56.117Z,546.00
2024-03-26T12:05:56.180Z,545.00
2024-03-26T12:06:56.232Z,548.00
2024-03-26T12:07:56.289Z,547.00
2024-03-26T12:08:56.345Z,545.00
2024-03-26T12:09:56.402Z,545.00
2024-03-26T12:10:56.472Z,542.00
2024-03-26T12:11:56.530Z,543.00
2024-03-26T12:12:56.579Z,545.00
2024-03-26T12:13:56.656Z,545.00
2024-03-26T12:14:56.725Z,546.00
2024-03-26T12:15:56.763Z,545.00
2024-03-26T12:16:56.814Z,545.00
2024-03-26T12:17:56.872Z,548.00
2024-03-26T12:18:56.939Z,549.00
2024-03-26T12:19:56.974Z,548.00
2024-03-26T12:20:57.030Z,548.00
2024-03-26T12:21:57.080Z,544.00
2024-03-26T12:22:57.136Z,546.00
2024-03-26T12:23:57.194Z,546.00
2024-03-26T12:24:57.249Z,546.00
2024-03-26T12:25:57.302Z,543.00
2024-03-26T12:26:57.365Z,544.00
2024-03-26T12:27:57.429Z,544.00
2024-03-26T12:28:57.499Z,544.00
2024-03-26T12:29:57.556Z,542.00